Time;durP1;ratioP1;P1;durP2;ratioP2;P2;SDS_P1;SDS_P2;PMS_P1;PMS_P2;Temp;Humidity;BMP_temperature;BMP_pressure;BME280_temperature;BME280_humidity;BME280_pressure;Samples;Min_cycle;Max_cycle;Signal;HPM_P1;HPM_P2
2023/05/23 00:02:12;;;;;;;12.00;11.00;;;18.60;99.90;;;;;;5072895;28;20180;-72
2023/05/23 00:04:38;;;;;;;12.60;11.50;;;18.60;99.90;;;;;;5074815;28;20165;-72
2023/05/23 00:07:04;;;;;;;13.73;12.47;;;18.60;99.90;;;;;;5076809;28;20445;-72
2023/05/23 00:09:30;;;;;;;13.43;12.30;;;18.70;99.90;;;;;;5093083;28;20172;-71
2023/05/23 00:11:56;;;;;;;13.53;12.43;;;18.70;99.90;;;;;;5093012;28;20407;-72
2023/05/23 00:14:22;;;;;;;14.03;12.67;;;18.70;99.90;;;;;;5092173;28;20188;-71
2023/05/23 00:16:48;;;;;;;14.23;12.80;;;18.70;99.90;;;;;;5094374;28;20418;-72
2023/05/23 00:19:15;;;;;;;14.60;13.13;;;18.70;99.90;;;;;;5094427;28;20449;-72
2023/05/23 00:21:47;;;;;;;15.27;13.97;;;18.70;99.90;;;;;;5094783;28;20410;-72
2023/05/23 00:24:13;;;;;;;14.17;12.90;;;18.70;99.90;;;;;;5094190;28;20422;-72
2023/05/23 00:26:39;;;;;;;13.17;11.97;;;18.70;99.90;;;;;;5093411;28;20913;-72
2023/05/23 00:29:04;;;;;;;13.60;12.20;;;18.60;99.90;;;;;;5092444;28;20425;-71
2023/05/23 00:31:30;;;;;;;14.03;12.80;;;18.40;99.90;;;;;;5057403;28;20599;-72
2023/05/23 00:33:56;;;;;;;13.30;12.07;;;18.40;99.90;;;;;;5053045;28;20185;-71
2023/05/23 00:36:22;;;;;;;13.77;12.50;;;18.40;99.90;;;;;;5092163;28;20176;-72
2023/05/23 00:38:48;;;;;;;13.60;12.40;;;18.40;99.90;;;;;;5092834;28;20290;-71
2023/05/23 00:41:14;;;;;;;15.07;13.70;;;18.40;99.90;;;;;;5094124;28;20219;-71
2023/05/23 00:43:40;;;;;;;13.57;12.37;;;18.40;99.90;;;;;;5094403;28;20475;-72
2023/05/23 00:46:07;;;;;;;12.13;11.03;;;18.40;99.90;;;;;;5093264;28;20410;-72
2023/05/23 00:48:33;;;;;;;12.63;11.47;;;18.40;99.90;;;;;;5094510;28;20208;-72
2023/05/23 00:50:59;;;;;;;12.90;11.70;;;18.40;99.90;;;;;;5092499;28;20932;-72
2023/05/23 00:53:26;;;;;;;13.23;12.13;;;18.30;99.90;;;;;;5094175;28;20639;-73
2023/05/23 00:55:51;;;;;;;13.17;12.10;;;18.20;99.90;;;;;;5092232;28;20415;-71
2023/05/23 00:58:17;;;;;;;12.93;11.77;;;18.20;99.90;;;;;;5094524;28;20469;-71
2023/05/23 01:00:48;;;;;;;13.70;12.50;;;18.20;99.90;;;;;;5079703;28;20791;-72
2023/05/23 01:03:16;;;;;;;14.33;13.03;;;18.10;99.90;;;;;;5073161;28;20496;-72
2023/05/23 01:05:43;;;;;;;10.23;9.40;;;18.10;99.90;;;;;;5074270;28;20552;-72
2023/05/23 01:08:09;;;;;;;9.87;9.00;;;18.00;99.90;;;;;;5072319;28;20937;-71
2023/05/23 01:10:35;;;;;;;8.27;7.70;;;18.00;99.90;;;;;;5073641;28;20556;-71
2023/05/23 01:13:04;;;;;;;8.13;7.53;;;18.00;99.90;;;;;;5073423;28;20161;-72
2023/05/23 01:15:51;;;;;;;7.87;7.27;;;18.00;99.90;;;;;;5074004;28;20505;-72
2023/05/23 01:18:40;;;;;;;8.00;7.40;;;17.90;99.90;;;;;;5087485;28;20494;-72
2023/05/23 01:21:14;;;;;;;7.93;7.33;;;17.90;99.90;;;;;;5093326;28;20493;-71
2023/05/23 01:24:07;;;;;;;7.27;6.77;;;17.90;99.90;;;;;;5093907;28;20394;-72
2023/05/23 01:27:03;;;;;;;7.90;7.20;;;17.90;99.90;;;;;;5093976;28;20403;-72
2023/05/23 01:29:37;;;;;;;7.87;7.30;;;17.90;99.90;;;;;;5086937;28;20427;-72
2023/05/23 01:32:07;;;;;;;7.50;6.90;;;17.90;99.90;;;;;;5088534;28;20454;-72
2023/05/23 01:34:35;;;;;;;7.07;6.60;;;17.90;99.90;;;;;;5093829;28;20409;-72
2023/05/23 01:37:06;;;;;;;7.63;7.13;;;17.90;99.90;;;;;;5083461;28;20455;-72
2023/05/23 01:39:32;;;;;;;9.27;8.57;;;17.90;99.90;;;;;;5073313;28;20451;-72
2023/05/23 01:41:58;;;;;;;9.33;8.63;;;17.80;99.90;;;;;;5071452;28;20919;-72
2023/05/23 01:44:24;;;;;;;8.90;8.10;;;17.80;99.90;;;;;;5071522;28;20184;-72
2023/05/23 01:46:49;;;;;;;8.03;7.50;;;17.80;99.90;;;;;;5073097;28;20165;-72
2023/05/23 01:49:16;;;;;;;7.87;7.37;;;17.80;99.90;;;;;;5072624;28;20598;-72
2023/05/23 01:51:42;;;;;;;8.70;8.00;;;17.80;99.90;;;;;;5084932;28;20427;-72
2023/05/23 01:54:08;;;;;;;8.77;8.00;;;17.70;99.90;;;;;;5092586;28;20414;-72
2023/05/23 01:56:34;;;;;;;7.80;7.20;;;17.70;99.90;;;;;;5091613;28;20426;-72
2023/05/23 01:59:00;;;;;;;7.97;7.37;;;17.70;99.90;;;;;;5083480;28;20458;-72
2023/05/23 02:01:26;;;;;;;8.70;8.07;;;17.70;99.90;;;;;;5084396;28;20479;-72
2023/05/23 02:03:52;;;;;;;8.07;7.27;;;17.70;99.90;;;;;;5092857;28;20890;-72
2023/05/23 02:06:18;;;;;;;8.67;7.97;;;17.70;99.90;;;;;;5091824;28;20417;-72
2023/05/23 02:08:43;;;;;;;8.53;7.93;;;17.70;99.90;;;;;;5092447;28;20189;-72
2023/05/23 02:11:09;;;;;;;8.63;7.93;;;17.80;99.90;;;;;;5091965;28;20180;-72
2023/05/23 02:13:35;;;;;;;7.97;7.37;;;17.70;99.90;;;;;;5092678;28;20195;-71
2023/05/23 02:16:01;;;;;;;8.13;7.37;;;17.80;99.90;;;;;;5091863;28;20623;-71
2023/05/23 02:18:28;;;;;;;8.70;8.07;;;17.70;99.90;;;;;;5090657;28;20216;-71
2023/05/23 02:20:55;;;;;;;8.03;7.43;;;17.70;99.90;;;;;;5092379;28;20173;-72
2023/05/23 02:23:21;;;;;;;8.50;7.87;;;17.80;99.90;;;;;;5092121;28;20463;-72
2023/05/23 02:25:47;;;;;;;8.10;7.50;;;17.80;99.90;;;;;;5080874;28;20430;-72
2023/05/23 02:28:13;;;;;;;9.17;8.27;;;17.90;99.90;;;;;;5071470;28;20895;-71
2023/05/23 02:30:39;;;;;;;8.60;8.00;;;17.90;99.90;;;;;;5071967;28;20494;-71
2023/05/23 02:33:05;;;;;;;8.87;8.10;;;17.90;99.90;;;;;;5076132;28;20164;-72
2023/05/23 02:35:31;;;;;;;8.30;7.70;;;18.00;99.90;;;;;;5092397;28;20407;-72
2023/05/23 02:37:57;;;;;;;8.80;8.03;;;18.00;99.90;;;;;;5091668;28;20584;-72
2023/05/23 02:40:23;;;;;;;9.20;8.60;;;18.00;99.90;;;;;;5089867;28;20946;-72
2023/05/23 02:42:50;;;;;;;10.27;9.47;;;18.00;99.90;;;;;;5092676;28;20534;-72
2023/05/23 02:45:17;;;;;;;10.30;9.50;;;18.00;99.90;;;;;;5091540;28;20172;-72
2023/05/23 02:47:42;;;;;;;11.00;10.00;;;18.00;99.90;;;;;;5090366;28;20422;-72
2023/05/23 02:50:09;;;;;;;11.03;9.93;;;18.00;99.90;;;;;;5091509;28;20886;-71
2023/05/23 02:52:35;;;;;;;10.40;9.60;;;18.00;99.90;;;;;;5092275;28;20181;-72
2023/05/23 02:55:01;;;;;;;11.00;10.20;;;18.00;99.90;;;;;;5087470;28;20522;-72
2023/05/23 02:57:26;;;;;;;10.23;9.43;;;18.00;99.90;;;;;;5076390;28;20260;-71
2023/05/23 02:59:52;;;;;;;11.60;10.50;;;18.00;99.90;;;;;;5075756;28;20631;-72
2023/05/23 03:02:18;;;;;;;11.97;11.00;;;18.00;99.90;;;;;;5091300;28;20198;-72
2023/05/23 03:04:44;;;;;;;12.50;11.40;;;18.00;99.90;;;;;;5096341;28;20865;-71
2023/05/23 03:07:11;;;;;;;11.33;10.20;;;18.00;99.90;;;;;;5093880;28;20238;-73
2023/05/23 03:09:37;;;;;;;11.63;10.80;;;18.00;99.90;;;;;;5096177;28;20233;-82
2023/05/23 03:12:03;;;;;;;12.50;11.50;;;18.00;99.90;;;;;;5095540;28;20406;-73
2023/05/23 03:14:29;;;;;;;13.03;11.93;;;18.00;99.90;;;;;;5076043;28;20264;-72
2023/05/23 03:16:55;;;;;;;13.57;12.33;;;18.00;99.90;;;;;;5096042;28;20881;-72
2023/05/23 03:19:20;;;;;;;13.83;12.73;;;18.00;99.90;;;;;;5095140;28;20207;-72
2023/05/23 03:21:46;;;;;;;12.60;11.57;;;18.00;99.90;;;;;;5096099;28;20631;-73
2023/05/23 03:24:12;;;;;;;14.63;13.23;;;18.00;99.90;;;;;;5095134;28;20176;-72
2023/05/23 03:26:38;;;;;;;14.30;13.10;;;18.00;99.90;;;;;;5074853;28;20181;-72
2023/05/23 03:29:03;;;;;;;14.27;12.90;;;18.00;99.90;;;;;;5080087;28;20178;-72
2023/05/23 03:31:29;;;;;;;13.77;12.57;;;18.00;99.90;;;;;;5094342;28;20172;-73
2023/05/23 03:33:55;;;;;;;14.80;13.37;;;18.00;99.90;;;;;;5095743;28;20168;-73
2023/05/23 03:36:24;;;;;;;14.20;12.80;;;18.00;99.90;;;;;;5095177;28;20171;-73
2023/05/23 03:38:52;;;;;;;13.50;12.30;;;17.90;99.90;;;;;;5095019;28;20228;-72
2023/05/23 03:41:17;;;;;;;15.27;13.97;;;17.70;99.90;;;;;;5094683;28;20433;-73
2023/05/23 03:43:43;;;;;;;15.43;13.97;;;17.70;99.90;;;;;;5069669;28;20423;-73
2023/05/23 03:46:09;;;;;;;15.00;13.50;;;17.70;99.90;;;;;;5084140;28;20937;-73
2023/05/23 03:48:35;;;;;;;12.93;11.83;;;17.70;99.90;;;;;;5095293;28;20169;-73
2023/05/23 03:51:01;;;;;;;16.87;15.50;;;17.70;99.90;;;;;;5095080;28;20837;-73
2023/05/23 03:53:27;;;;;;;15.53;14.33;;;17.70;99.90;;;;;;5093822;28;20983;-73
2023/05/23 03:55:53;;;;;;;15.77;14.47;;;17.70;99.90;;;;;;5080227;28;20415;-73
2023/05/23 03:58:19;;;;;;;14.93;13.43;;;17.70;99.90;;;;;;5064098;28;20263;-73
2023/05/23 04:00:46;;;;;;;16.03;14.70;;;17.70;99.90;;;;;;5054962;28;20193;-73
2023/05/23 04:03:14;;;;;;;17.10;15.60;;;17.70;99.90;;;;;;5054102;28;20404;-73
2023/05/23 04:05:40;;;;;;;12.87;11.67;;;17.70;99.90;;;;;;5054606;28;20470;-73
2023/05/23 04:08:07;;;;;;;13.93;12.73;;;17.50;99.90;;;;;;5053629;28;20887;-73
2023/05/23 04:10:32;;;;;;;13.40;12.10;;;17.60;99.90;;;;;;5055166;28;20443;-73
2023/05/23 04:12:58;;;;;;;15.30;13.90;;;17.50;99.90;;;;;;5092464;28;20474;-73
2023/05/23 04:15:24;;;;;;;12.80;11.50;;;17.40;99.90;;;;;;5094101;28;20749;-73
2023/05/23 04:17:50;;;;;;;13.03;11.83;;;17.50;99.90;;;;;;5094918;28;20522;-73
2023/05/23 04:20:16;;;;;;;12.50;11.20;;;17.50;99.90;;;;;;5091001;28;20442;-73
2023/05/23 04:22:42;;;;;;;14.80;13.40;;;17.50;99.90;;;;;;5094844;28;20187;-73
2023/05/23 04:25:08;;;;;;;14.97;13.57;;;17.40;99.90;;;;;;5082158;28;20423;-73
2023/05/23 04:27:34;;;;;;;14.13;12.70;;;17.40;99.90;;;;;;5072717;28;20640;-73
2023/05/23 04:30:00;;;;;;;15.77;14.20;;;17.40;99.90;;;;;;5055829;28;20430;-73
2023/05/23 04:32:26;;;;;;;15.17;13.73;;;17.30;99.90;;;;;;5088749;28;20422;-74
2023/05/23 04:34:52;;;;;;;14.13;12.80;;;17.30;99.90;;;;;;5094388;28;20173;-74
2023/05/23 04:37:24;;;;;;;14.13;12.70;;;17.30;99.90;;;;;;5093372;28;20172;-73
2023/05/23 04:39:51;;;;;;;16.57;13.27;;;17.30;99.90;;;;;;5085977;28;20458;-73
2023/05/23 04:42:23;;;;;;;13.90;12.20;;;17.20;99.90;;;;;;5093641;28;20525;-73
2023/05/23 04:44:50;;;;;;;13.00;11.70;;;17.20;99.90;;;;;;5094504;28;20476;-74
2023/05/23 04:47:16;;;;;;;12.87;11.70;;;17.20;99.90;;;;;;5065761;28;20433;-73
2023/05/23 04:49:42;;;;;;;11.83;10.83;;;17.20;99.90;;;;;;5078504;28;20513;-74
2023/05/23 04:52:08;;;;;;;12.40;11.23;;;17.20;99.90;;;;;;5092232;28;20485;-73
2023/05/23 04:54:35;;;;;;;11.40;10.40;;;17.20;99.90;;;;;;5088382;28;20457;-73
2023/05/23 04:57:00;;;;;;;12.10;10.90;;;17.20;99.90;;;;;;5073940;28;20196;-73
2023/05/23 04:59:26;;;;;;;12.03;10.73;;;17.20;99.90;;;;;;5073006;28;20447;-73
2023/05/23 05:01:52;;;;;;;13.90;10.20;;;17.20;99.90;;;;;;5060272;28;20174;-74
2023/05/23 05:04:18;;;;;;;10.87;9.93;;;17.20;99.90;;;;;;5072996;28;20263;-74
2023/05/23 05:06:44;;;;;;;11.23;10.13;;;17.30;99.90;;;;;;5091797;28;20624;-73
2023/05/23 05:09:10;;;;;;;10.97;9.87;;;17.30;99.90;;;;;;5085542;28;20442;-74
2023/05/23 05:11:35;;;;;;;11.13;10.10;;;17.30;99.90;;;;;;5092561;28;20474;-73
2023/05/23 05:14:01;;;;;;;10.53;9.43;;;17.30;99.90;;;;;;5091800;28;20262;-74
2023/05/23 05:16:27;;;;;;;10.87;9.90;;;17.30;99.90;;;;;;5093217;28;20806;-73
2023/05/23 05:18:53;;;;;;;11.20;9.90;;;17.20;99.90;;;;;;5092656;28;20208;-73
2023/05/23 05:21:18;;;;;;;14.20;10.37;;;17.20;99.90;;;;;;5092792;28;20550;-73
2023/05/23 05:23:44;;;;;;;12.50;11.10;;;17.20;99.90;;;;;;5091956;28;20612;-74
2023/05/23 05:26:10;;;;;;;11.50;10.50;;;17.20;99.90;;;;;;5052564;28;20169;-73
2023/05/23 05:28:38;;;;;;;11.17;9.90;;;17.20;99.90;;;;;;5081692;28;20652;-74
2023/05/23 05:31:03;;;;;;;11.33;10.13;;;17.20;99.90;;;;;;5080061;28;20597;-74
2023/05/23 05:33:34;;;;;;;11.40;10.30;;;17.20;99.90;;;;;;5064643;28;20503;-74
2023/05/23 05:36:05;;;;;;;15.03;10.90;;;17.20;99.90;;;;;;5053203;28;20165;-73
2023/05/23 05:38:31;;;;;;;12.97;11.03;;;17.20;99.90;;;;;;5056094;28;20475;-74
2023/05/23 05:40:57;;;;;;;11.37;10.23;;;17.30;99.90;;;;;;5093847;28;20890;-74
2023/05/23 05:43:23;;;;;;;12.40;11.20;;;17.30;99.90;;;;;;5092955;28;20406;-74
2023/05/23 05:45:48;;;;;;;13.47;10.90;;;17.30;99.90;;;;;;5090229;28;20687;-72
2023/05/23 05:48:15;;;;;;;11.03;9.90;;;17.30;99.90;;;;;;5070102;28;20438;-73
2023/05/23 05:50:44;;;;;;;10.60;9.27;;;17.70;99.90;;;;;;5064136;28;20172;-73
2023/05/23 05:53:11;;;;;;;11.03;10.03;;;18.10;99.90;;;;;;5092730;28;20493;-73
2023/05/23 05:55:37;;;;;;;11.40;10.20;;;18.50;99.90;;;;;;5076020;28;20489;-73
2023/05/23 05:58:03;;;;;;;11.40;10.20;;;18.70;99.90;;;;;;5073088;28;20447;-73
2023/05/23 06:00:29;;;;;;;11.27;9.50;;;18.90;99.90;;;;;;5072468;28;20453;-73
2023/05/23 06:02:56;;;;;;;9.93;8.93;;;19.00;99.90;;;;;;5073070;28;20407;-73
2023/05/23 06:05:22;;;;;;;11.90;8.90;;;19.30;99.90;;;;;;5072096;28;20211;-73
2023/05/23 06:07:49;;;;;;;10.73;9.50;;;19.40;99.90;;;;;;5075187;28;20857;-73
2023/05/23 06:10:15;;;;;;;9.53;8.60;;;19.50;99.90;;;;;;5092533;28;20407;-73
2023/05/23 06:12:41;;;;;;;9.07;8.27;;;19.60;99.90;;;;;;5091874;28;20993;-73
2023/05/23 06:15:13;;;;;;;10.33;9.23;;;19.60;99.90;;;;;;5093167;28;20748;-73
2023/05/23 06:17:39;;;;;;;13.07;11.97;;;19.60;99.90;;;;;;5093505;28;20398;-73
2023/05/23 06:20:05;;;;;;;13.73;12.33;;;19.60;99.90;;;;;;5092982;28;20968;-71
2023/05/23 06:22:31;;;;;;;13.37;11.17;;;19.70;99.90;;;;;;5066700;28;20465;-71
2023/05/23 06:24:57;;;;;;;12.90;11.70;;;19.50;99.90;;;;;;5071605;28;20473;-71
2023/05/23 06:27:22;;;;;;;13.17;11.80;;;19.30;99.90;;;;;;5070902;28;20264;-71
2023/05/23 06:29:51;;;;;;;18.30;16.50;;;19.10;99.90;;;;;;5070714;28;20188;-71
2023/05/23 06:32:16;;;;;;;14.70;13.20;;;18.80;99.90;;;;;;5071838;28;20180;-71
2023/05/23 06:34:42;;;;;;;17.83;13.30;;;18.60;99.90;;;;;;5072927;28;20886;-72
2023/05/23 06:37:08;;;;;;;16.03;13.70;;;18.50;99.90;;;;;;5072335;28;20168;-71
2023/05/23 06:39:35;;;;;;;13.63;12.23;;;18.30;99.90;;;;;;5072661;28;20224;-71
2023/05/23 06:42:01;;;;;;;15.60;12.20;;;18.10;99.90;;;;;;5071905;28;20776;-71
2023/05/23 06:44:27;;;;;;;13.87;12.47;;;18.00;99.90;;;;;;5061707;28;20186;-71
2023/05/23 06:46:57;;;;;;;16.20;14.50;;;17.90;99.90;;;;;;5052112;28;20937;-72
2023/05/23 06:49:23;;;;;;;16.67;14.47;;;17.80;99.90;;;;;;5065869;28;20168;-70
2023/05/23 06:51:50;;;;;;;16.57;14.97;;;17.70;99.90;;;;;;5092447;28;20402;-70
2023/05/23 06:54:16;;;;;;;16.30;13.97;;;17.60;99.90;;;;;;5091948;28;20410;-70
2023/05/23 06:56:42;;;;;;;14.93;13.20;;;17.60;99.90;;;;;;5082990;28;20468;-70
2023/05/23 06:59:07;;;;;;;15.30;13.80;;;17.50;99.90;;;;;;5072079;28;20939;-71
2023/05/23 07:01:33;;;;;;;15.17;13.53;;;17.50;99.90;;;;;;5060840;28;20192;-70
2023/05/23 07:03:59;;;;;;;15.80;14.23;;;17.50;99.90;;;;;;5083246;28;20222;-71
2023/05/23 07:06:26;;;;;;;14.20;12.93;;;17.40;99.90;;;;;;5089963;28;20179;-70
2023/05/23 07:08:52;;;;;;;12.60;11.40;;;17.30;99.90;;;;;;5071971;28;20173;-70
2023/05/23 07:11:20;;;;;;;14.07;12.67;;;17.20;99.90;;;;;;5071780;28;20485;-71
2023/05/23 07:13:46;;;;;;;15.53;14.10;;;17.10;99.90;;;;;;5071894;28;20891;-70
2023/05/23 07:16:12;;;;;;;13.60;12.43;;;17.00;99.90;;;;;;5071707;28;20415;-70
2023/05/23 07:18:38;;;;;;;18.33;10.70;;;17.00;99.90;;;;;;5074270;28;20204;-70
2023/05/23 07:21:04;;;;;;;13.60;11.00;;;17.00;99.90;;;;;;5092295;28;20497;-70
2023/05/23 07:23:33;;;;;;;13.10;11.57;;;16.90;99.90;;;;;;5087366;28;20249;-70
2023/05/23 07:26:00;;;;;;;12.17;10.93;;;16.90;99.90;;;;;;5072171;28;20535;-70
2023/05/23 07:28:26;;;;;;;11.90;10.37;;;16.90;99.90;;;;;;5070662;28;20430;-70
2023/05/23 07:30:52;;;;;;;11.40;9.70;;;16.80;99.90;;;;;;5078966;28;20895;-71
2023/05/23 07:33:17;;;;;;;12.07;11.00;;;16.80;99.90;;;;;;5071512;28;20165;-70
2023/05/23 07:35:43;;;;;;;11.57;10.57;;;16.80;99.90;;;;;;5071973;28;20628;-70
2023/05/23 07:38:09;;;;;;;9.90;8.93;;;16.80;99.90;;;;;;5071835;28;20657;-70
2023/05/23 07:40:37;;;;;;;10.87;9.77;;;16.70;99.90;;;;;;5071481;28;20181;-71
2023/05/23 07:43:03;;;;;;;10.00;9.10;;;16.80;99.90;;;;;;5074707;28;20203;-70
2023/05/23 07:45:28;;;;;;;9.80;8.60;;;16.80;99.90;;;;;;5073770;28;20438;-70
2023/05/23 07:47:54;;;;;;;10.73;9.77;;;16.80;99.90;;;;;;5075317;28;20415;-70
2023/05/23 07:50:20;;;;;;;11.47;9.70;;;16.80;99.90;;;;;;5075005;28;20173;-70
2023/05/23 07:52:46;;;;;;;10.50;8.67;;;16.70;99.90;;;;;;5075395;28;20183;-70
2023/05/23 07:55:12;;;;;;;9.97;9.07;;;16.70;99.90;;;;;;5075600;28;20486;-70
2023/05/23 07:57:37;;;;;;;10.20;9.20;;;16.70;99.90;;;;;;5074790;28;20194;-70
2023/05/23 08:00:05;;;;;;;9.40;8.50;;;16.60;99.90;;;;;;5074155;28;20197;-70
2023/05/23 08:02:31;;;;;;;8.50;7.67;;;16.60;99.90;;;;;;5074692;28;20177;-70
2023/05/23 08:04:58;;;;;;;9.17;8.10;;;16.60;99.90;;;;;;5075160;28;20541;-71
2023/05/23 08:07:24;;;;;;;9.57;8.70;;;16.60;99.90;;;;;;5074431;28;20165;-70
2023/05/23 08:09:49;;;;;;;11.07;8.50;;;16.60;99.90;;;;;;5062757;28;20436;-70
2023/05/23 08:12:15;;;;;;;10.40;8.03;;;16.70;99.90;;;;;;5091771;28;20168;-70
2023/05/23 08:14:41;;;;;;;8.70;7.57;;;16.70;99.90;;;;;;5079986;28;20530;-71
2023/05/23 08:17:07;;;;;;;8.50;7.60;;;16.80;99.90;;;;;;5093453;28;20682;-71
2023/05/23 08:19:32;;;;;;;9.50;8.60;;;16.80;99.90;;;;;;5087444;28;20210;-71
2023/05/23 08:21:58;;;;;;;9.53;8.53;;;16.80;99.90;;;;;;5075214;28;20216;-71
2023/05/23 08:24:24;;;;;;;9.80;8.47;;;16.90;99.90;;;;;;5072559;28;20620;-71
2023/05/23 08:26:50;;;;;;;10.23;9.23;;;17.00;99.90;;;;;;5074869;28;20271;-71
2023/05/23 08:29:15;;;;;;;10.97;9.97;;;17.00;99.90;;;;;;5074869;28;20205;-71
2023/05/23 08:31:41;;;;;;;11.40;9.90;;;17.10;99.90;;;;;;5074617;28;20170;-71
2023/05/23 08:34:07;;;;;;;10.63;9.53;;;17.10;99.90;;;;;;5074782;28;20399;-71
2023/05/23 08:36:35;;;;;;;10.43;9.53;;;17.10;99.90;;;;;;5073192;28;20545;-71
2023/05/23 08:39:01;;;;;;;9.73;7.97;;;17.20;99.90;;;;;;5074018;28;20850;-71
2023/05/23 08:41:28;;;;;;;8.70;8.00;;;17.20;99.90;;;;;;5074053;28;20479;-71
2023/05/23 08:43:54;;;;;;;9.00;8.20;;;17.20;99.90;;;;;;5074565;28;20407;-71
2023/05/23 08:46:22;;;;;;;9.30;8.07;;;17.20;99.90;;;;;;5073678;28;20930;-71
2023/05/23 08:48:54;;;;;;;9.30;7.40;;;17.20;99.90;;;;;;5074456;28;20962;-71
2023/05/23 08:51:25;;;;;;;10.83;9.83;;;17.20;99.90;;;;;;5073904;28;20407;-71
2023/05/23 08:53:58;;;;;;;10.00;9.10;;;17.20;99.90;;;;;;5074177;28;20747;-71
2023/05/23 08:56:27;;;;;;;10.60;8.50;;;17.20;99.90;;;;;;5072754;28;20400;-71
2023/05/23 08:58:53;;;;;;;8.70;7.80;;;17.10;99.90;;;;;;5073909;28;20463;-71
2023/05/23 09:01:21;;;;;;;10.90;9.30;;;17.00;99.90;;;;;;5073679;28;20502;-71
2023/05/23 09:03:49;;;;;;;11.57;7.90;;;17.00;99.90;;;;;;5074187;28;20416;-70
2023/05/23 09:06:17;;;;;;;9.83;8.93;;;17.00;99.90;;;;;;5073079;28;20422;-71
2023/05/23 09:08:45;;;;;;;9.77;8.27;;;17.00;99.90;;;;;;5073971;28;20419;-71
2023/05/23 09:11:13;;;;;;;8.03;7.33;;;17.00;99.90;;;;;;5074028;28;20443;-71
2023/05/23 09:13:39;;;;;;;10.93;8.07;;;17.00;99.90;;;;;;5073423;28;20494;-71
2023/05/23 09:16:07;;;;;;;7.83;7.13;;;17.10;99.90;;;;;;5074138;28;20438;-71
2023/05/23 09:18:38;;;;;;;8.43;7.60;;;17.10;99.90;;;;;;5071973;28;20232;-71
2023/05/23 09:21:04;;;;;;;9.97;8.97;;;17.00;99.90;;;;;;5073644;28;20943;-71
2023/05/23 09:23:40;;;;;;;10.27;9.23;;;17.00;99.90;;;;;;5073247;28;20487;-71
2023/05/23 09:26:07;;;;;;;13.80;12.43;;;16.90;99.90;;;;;;5073551;28;20823;-71
2023/05/23 09:28:34;;;;;;;14.33;12.20;;;16.90;99.90;;;;;;5073003;28;20817;-71
2023/05/23 09:31:07;;;;;;;16.33;14.73;;;16.90;99.90;;;;;;5073654;28;20835;-71
2023/05/23 09:33:44;;;;;;;14.63;13.43;;;16.90;99.90;;;;;;5072984;28;20407;-71
2023/05/23 09:36:10;;;;;;;16.13;14.70;;;16.80;99.90;;;;;;5072527;28;20485;-71
2023/05/23 09:38:40;;;;;;;16.20;14.80;;;16.80;99.90;;;;;;5072735;28;20467;-71
2023/05/23 09:41:06;;;;;;;12.30;11.10;;;16.70;99.90;;;;;;5073413;28;20181;-71
2023/05/23 09:43:32;;;;;;;11.70;10.50;;;16.70;99.90;;;;;;5072765;28;20412;-70
2023/05/23 09:46:09;;;;;;;10.67;9.73;;;16.70;99.90;;;;;;5073373;28;20906;-71
2023/05/23 09:48:36;;;;;;;12.63;10.50;;;16.70;99.90;;;;;;5071449;28;20864;-71
2023/05/23 09:51:09;;;;;;;14.60;11.50;;;16.60;99.90;;;;;;5073200;28;20451;-71
2023/05/23 09:53:35;;;;;;;13.50;12.30;;;16.60;99.90;;;;;;5072595;28;20461;-71
2023/05/23 09:56:05;;;;;;;11.60;10.07;;;16.60;99.90;;;;;;5073135;28;20391;-71
2023/05/23 09:58:32;;;;;;;11.40;10.00;;;16.60;99.90;;;;;;5071518;28;20946;-71
2023/05/23 10:01:02;;;;;;;13.17;10.77;;;16.60;99.90;;;;;;5072735;28;20400;-71
2023/05/23 10:03:34;;;;;;;12.17;10.03;;;16.70;99.90;;;;;;5071821;28;20498;-71
2023/05/23 10:06:07;;;;;;;10.77;9.67;;;16.70;99.90;;;;;;5071485;28;20404;-71
2023/05/23 10:08:40;;;;;;;11.10;9.40;;;16.70;99.90;;;;;;5072554;28;20427;-71
2023/05/23 10:11:12;;;;;;;9.57;8.67;;;16.70;99.90;;;;;;5073077;28;20407;-71
2023/05/23 10:13:41;;;;;;;9.50;6.87;;;16.70;99.90;;;;;;5072370;28;20407;-71
2023/05/23 10:16:53;;;;;;;9.13;8.33;;;16.60;99.90;;;;;;5071716;28;20399;-71
2023/05/23 10:19:39;;;;;;;12.90;8.63;;;16.60;99.90;;;;;;5070333;28;20589;-71
2023/05/23 10:22:09;;;;;;;12.67;8.87;;;16.60;99.90;;;;;;5073159;28;20400;-71
2023/05/23 10:24:35;;;;;;;8.47;7.70;;;16.70;99.90;;;;;;5072116;28;20414;-71
2023/05/23 10:27:02;;;;;;;10.17;9.20;;;16.70;99.90;;;;;;5072683;28;20411;-71
2023/05/23 10:29:30;;;;;;;9.50;8.60;;;16.80;99.90;;;;;;5072105;28;20423;-70
2023/05/23 10:31:57;;;;;;;9.83;8.80;;;16.80;99.90;;;;;;5072687;28;20414;-71
2023/05/23 10:34:29;;;;;;;9.83;8.93;;;16.70;99.90;;;;;;5072752;28;20789;-71
2023/05/23 10:37:04;;;;;;;12.73;9.10;;;16.70;99.90;;;;;;5071718;28;20587;-71
2023/05/23 10:40:13;;;;;;;11.00;7.87;;;16.60;99.90;;;;;;5071502;28;20462;-70
2023/05/23 10:42:59;;;;;;;12.00;10.73;;;16.50;99.90;;;;;;5049444;28;20835;-71
2023/05/23 10:45:25;;;;;;;11.60;9.50;;;16.50;99.90;;;;;;5065138;28;20895;-70
2023/05/23 10:47:52;;;;;;;12.47;9.40;;;16.50;99.90;;;;;;5072121;28;20403;-71
2023/05/23 10:50:35;;;;;;;11.97;8.70;;;16.50;99.90;;;;;;5072459;28;20522;-71
2023/05/23 10:53:03;;;;;;;12.07;10.87;;;16.50;99.90;;;;;;5071447;28;20433;-71
2023/05/23 10:55:34;;;;;;;12.40;9.10;;;16.40;99.90;;;;;;5071837;28;20399;-71
2023/05/23 10:58:20;;;;;;;11.60;9.00;;;16.30;99.90;;;;;;5072162;28;20944;-71
2023/05/23 11:01:01;;;;;;;11.77;8.60;;;16.30;99.90;;;;;;5071765;28;20450;-70
2023/05/23 11:03:36;;;;;;;10.37;7.57;;;16.20;99.90;;;;;;5071865;28;20407;-71
2023/05/23 11:06:03;;;;;;;7.90;6.93;;;16.20;99.90;;;;;;5071508;28;20422;-71
2023/05/23 11:08:41;;;;;;;10.97;8.57;;;16.20;99.90;;;;;;5071492;28;20407;-71
2023/05/23 11:11:07;;;;;;;8.10;7.27;;;16.20;99.90;;;;;;5072302;28;20469;-71
2023/05/23 11:13:59;;;;;;;14.37;8.07;;;16.20;99.90;;;;;;5071694;28;20750;-71
2023/05/23 11:16:29;;;;;;;8.93;8.13;;;16.10;99.90;;;;;;5074773;28;20399;-71
2023/05/23 11:19:18;;;;;;;9.80;7.47;;;16.20;99.90;;;;;;5076150;28;20465;-71
2023/05/23 11:22:01;;;;;;;8.43;7.50;;;16.30;99.90;;;;;;5072281;28;20427;-71
2023/05/23 11:24:49;;;;;;;8.53;7.63;;;16.30;99.90;;;;;;5075568;28;20395;-70
2023/05/23 11:27:15;;;;;;;10.70;8.00;;;16.30;99.90;;;;;;5074856;28;20797;-71
2023/05/23 11:29:42;;;;;;;8.20;7.13;;;16.30;99.90;;;;;;5075395;28;20414;-71
2023/05/23 11:32:11;;;;;;;9.50;7.27;;;16.40;99.90;;;;;;5075853;28;20438;-71
2023/05/23 11:34:38;;;;;;;9.20;7.90;;;16.50;99.90;;;;;;5075570;28;20536;-71
2023/05/23 11:37:04;;;;;;;7.70;7.10;;;16.60;99.90;;;;;;5073412;28;20434;-71
2023/05/23 11:39:30;;;;;;;9.17;7.30;;;16.80;99.90;;;;;;5075233;28;20494;-71
2023/05/23 11:42:00;;;;;;;8.43;7.40;;;17.10;99.90;;;;;;5075918;28;20450;-71
2023/05/23 11:44:26;;;;;;;10.20;8.50;;;17.20;99.90;;;;;;5075614;28;20261;-71
2023/05/23 11:47:00;;;;;;;15.30;8.37;;;17.20;99.90;;;;;;5074958;28;20821;-71
2023/05/23 11:49:31;;;;;;;12.23;7.80;;;17.30;99.90;;;;;;5075602;28;20420;-70
2023/05/23 11:51:59;;;;;;;15.20;7.33;;;17.20;99.90;;;;;;5074364;28;20421;-71
2023/05/23 11:54:25;;;;;;;8.83;7.77;;;17.20;99.90;;;;;;5075406;28;20409;-70
2023/05/23 11:56:51;;;;;;;8.70;7.30;;;17.10;99.90;;;;;;5074769;28;20395;-71
2023/05/23 11:59:17;;;;;;;7.13;6.43;;;17.10;99.90;;;;;;5074152;28;20455;-71
2023/05/23 12:01:43;;;;;;;10.83;8.63;;;17.10;99.90;;;;;;5074671;28;20403;-70
2023/05/23 12:04:13;;;;;;;8.37;7.43;;;17.10;99.90;;;;;;5075187;28;20185;-70
2023/05/23 12:06:40;;;;;;;10.33;8.00;;;17.10;99.90;;;;;;5073709;28;20448;-70
2023/05/23 12:09:10;;;;;;;8.73;8.03;;;17.10;99.90;;;;;;5074877;28;20443;-70
2023/05/23 12:11:36;;;;;;;7.20;6.20;;;17.10;99.90;;;;;;5074595;28;20422;-70
2023/05/23 12:14:05;;;;;;;7.23;6.53;;;17.00;99.90;;;;;;5075146;28;20400;-70
2023/05/23 12:16:32;;;;;;;7.43;6.53;;;17.00;99.90;;;;;;5074780;28;20408;-70
2023/05/23 12:19:00;;;;;;;6.70;6.00;;;17.00;99.90;;;;;;5074444;28;20462;-70
2023/05/23 12:21:38;;;;;;;9.20;6.00;;;17.00;99.90;;;;;;5075150;28;20435;-70
2023/05/23 12:24:19;;;;;;;8.80;6.90;;;17.00;99.90;;;;;;5074954;28;20478;-70
2023/05/23 12:26:47;;;;;;;8.93;6.40;;;17.00;99.90;;;;;;5073430;28;20919;-71
2023/05/23 12:29:15;;;;;;;6.97;6.30;;;17.00;99.90;;;;;;5074189;28;20468;-72
2023/05/23 12:31:41;;;;;;;9.00;6.83;;;16.90;99.90;;;;;;5074259;28;20454;-72
2023/05/23 12:34:06;;;;;;;7.40;6.60;;;16.90;99.90;;;;;;5074782;28;20447;-72
2023/05/23 12:36:33;;;;;;;9.30;7.60;;;16.90;99.90;;;;;;5073134;28;20177;-72
2023/05/23 12:39:03;;;;;;;10.10;7.27;;;16.90;99.90;;;;;;5074199;28;20235;-70
2023/05/23 12:41:31;;;;;;;8.70;7.80;;;17.00;99.90;;;;;;5074727;28;20422;-71